Time;durP1;ratioP1;P1;durP2;ratioP2;P2;SDS_P1;SDS_P2;PMS_P1;PMS_P2;Temp;Humidity;BMP_temperature;BMP_pressure;BME280_temperature;BME280_humidity;BME280_pressure;Samples;Min_cycle;Max_cycle;Signal;HPM_P1;HPM_P2
2022/07/25 00:02:06;;;;;;;5.18;3.92;;;21.90;99.90;;;;;;5075506;28;20120;-71
2022/07/25 00:04:31;;;;;;;5.05;3.75;;;21.80;99.90;;;;;;5093473;28;20043;-71
2022/07/25 00:06:57;;;;;;;4.82;3.83;;;21.90;99.90;;;;;;5075123;28;20129;-71
2022/07/25 00:09:22;;;;;;;4.78;3.60;;;21.80;99.90;;;;;;5075023;28;20490;-72
2022/07/25 00:11:48;;;;;;;4.38;3.97;;;21.80;99.90;;;;;;5093541;28;20168;-70
2022/07/25 00:14:14;;;;;;;6.90;3.90;;;21.80;99.90;;;;;;5075253;28;20039;-72
2022/07/25 00:16:42;;;;;;;7.18;4.00;;;21.90;99.90;;;;;;5093190;28;20043;-72
2022/07/25 00:19:08;;;;;;;6.78;4.22;;;21.80;99.90;;;;;;5075346;28;20413;-72
2022/07/25 00:21:34;;;;;;;6.90;4.78;;;21.80;99.90;;;;;;5092880;28;20046;-73
2022/07/25 00:24:00;;;;;;;8.10;4.60;;;21.80;99.90;;;;;;5074803;28;20032;-72
2022/07/25 00:26:25;;;;;;;7.38;5.10;;;21.80;99.90;;;;;;5093263;28;20036;-72
2022/07/25 00:28:51;;;;;;;6.90;4.95;;;21.80;99.90;;;;;;5074908;28;20378;-72
2022/07/25 00:31:17;;;;;;;8.48;5.55;;;21.80;99.90;;;;;;5092268;28;20039;-72
2022/07/25 00:33:42;;;;;;;6.60;5.70;;;21.70;99.90;;;;;;5082916;28;20088;-72
2022/07/25 00:36:08;;;;;;;9.02;5.10;;;21.70;99.90;;;;;;5067144;28;20051;-72
2022/07/25 00:38:34;;;;;;;10.90;6.28;;;21.70;99.90;;;;;;5086363;28;20052;-72
2022/07/25 00:41:01;;;;;;;7.80;5.10;;;21.70;99.90;;;;;;5091437;28;20032;-72
2022/07/25 00:43:26;;;;;;;10.00;5.72;;;21.70;99.90;;;;;;5084723;28;20036;-72
2022/07/25 00:45:52;;;;;;;6.80;5.65;;;21.60;99.90;;;;;;5092486;28;20038;-72
2022/07/25 00:48:17;;;;;;;7.13;6.00;;;21.40;99.90;;;;;;5091295;28;20066;-72
2022/07/25 00:50:46;;;;;;;9.60;5.82;;;21.50;99.90;;;;;;5092351;28;20032;-72
2022/07/25 00:53:11;;;;;;;8.57;5.43;;;21.50;99.90;;;;;;5091754;28;20044;-72
2022/07/25 00:55:37;;;;;;;8.55;6.30;;;21.40;99.90;;;;;;5089799;28;20505;-72
2022/07/25 00:58:03;;;;;;;8.85;6.57;;;21.40;99.90;;;;;;5082734;28;20044;-72
2022/07/25 01:00:28;;;;;;;7.95;6.38;;;21.30;99.90;;;;;;5091236;28;20050;-72
2022/07/25 01:02:54;;;;;;;9.48;7.03;;;21.20;99.90;;;;;;5092396;28;20055;-72
2022/07/25 01:05:20;;;;;;;9.38;7.00;;;21.20;99.90;;;;;;5090054;28;20094;-72
2022/07/25 01:07:46;;;;;;;8.55;6.63;;;21.10;99.90;;;;;;5092462;28;20039;-72
2022/07/25 01:10:12;;;;;;;8.98;7.45;;;21.20;99.90;;;;;;5092150;28;20032;-72
2022/07/25 01:12:52;;;;;;;10.60;7.47;;;21.20;99.90;;;;;;5092358;28;20115;-72
2022/07/25 01:15:19;;;;;;;9.00;7.38;;;21.20;99.90;;;;;;5090969;28;20048;-72
2022/07/25 01:17:45;;;;;;;9.52;7.97;;;21.20;99.90;;;;;;5091235;28;20040;-72
2022/07/25 01:20:19;;;;;;;10.27;7.90;;;21.10;99.90;;;;;;5090755;28;20036;-72
2022/07/25 01:22:45;;;;;;;9.38;7.95;;;21.10;99.90;;;;;;5090781;28;20465;-72
2022/07/25 01:25:11;;;;;;;11.10;9.13;;;21.10;99.90;;;;;;5092029;28;20032;-72
2022/07/25 01:27:37;;;;;;;14.57;9.50;;;21.00;99.90;;;;;;5092167;28;20036;-72
2022/07/25 01:30:06;;;;;;;13.95;9.50;;;20.90;99.90;;;;;;5090386;28;20047;-72
2022/07/25 01:32:31;;;;;;;11.90;10.13;;;21.00;99.90;;;;;;5090564;28;20039;-72
2022/07/25 01:34:57;;;;;;;11.55;10.35;;;20.90;99.90;;;;;;5091864;28;20040;-72
2022/07/25 01:37:22;;;;;;;12.88;10.30;;;20.80;99.90;;;;;;5081984;28;20036;-72
2022/07/25 01:39:48;;;;;;;11.73;9.45;;;20.80;99.90;;;;;;5091704;28;20046;-72
2022/07/25 01:42:14;;;;;;;12.32;10.05;;;20.70;99.90;;;;;;5090564;28;20089;-72
2022/07/25 01:44:39;;;;;;;16.15;11.15;;;20.60;99.90;;;;;;5090311;28;20043;-72
2022/07/25 01:47:05;;;;;;;12.23;10.23;;;20.60;99.90;;;;;;5091912;28;20036;-72
2022/07/25 01:49:30;;;;;;;14.65;11.20;;;20.60;99.90;;;;;;5090190;28;20036;-72
2022/07/25 01:51:56;;;;;;;12.18;9.95;;;20.60;99.90;;;;;;5090553;28;20047;-72
2022/07/25 01:54:21;;;;;;;14.25;9.48;;;20.60;99.90;;;;;;5090730;28;20115;-72
2022/07/25 01:56:47;;;;;;;12.48;11.18;;;20.50;99.90;;;;;;5091732;28;20036;-72
2022/07/25 01:59:13;;;;;;;15.45;11.80;;;20.50;99.90;;;;;;5090090;28;20044;-72
2022/07/25 02:01:39;;;;;;;15.07;11.23;;;20.40;99.90;;;;;;5073680;28;20048;-72
2022/07/25 02:04:05;;;;;;;14.48;11.75;;;20.30;99.90;;;;;;5090583;28;20134;-72
2022/07/25 02:06:30;;;;;;;17.13;13.13;;;20.20;99.90;;;;;;5090560;28;20507;-72
2022/07/25 02:08:56;;;;;;;18.42;13.15;;;20.20;99.90;;;;;;5090236;28;20036;-72
2022/07/25 02:11:21;;;;;;;14.73;13.13;;;20.10;99.90;;;;;;5091379;28;20083;-72
2022/07/25 02:13:47;;;;;;;15.95;11.88;;;20.10;99.90;;;;;;5091557;28;20047;-72
2022/07/25 02:16:13;;;;;;;16.10;12.55;;;20.20;99.90;;;;;;5091290;28;20064;-72
2022/07/25 02:18:38;;;;;;;16.80;13.07;;;20.20;99.90;;;;;;5095726;28;20093;-72
2022/07/25 02:21:07;;;;;;;14.05;12.25;;;20.10;99.90;;;;;;5095405;28;20472;-72
2022/07/25 02:23:33;;;;;;;16.73;13.38;;;20.10;99.90;;;;;;5077326;28;20040;-72
2022/07/25 02:25:58;;;;;;;15.95;13.30;;;20.10;99.90;;;;;;5093988;28;20093;-72
2022/07/25 02:28:24;;;;;;;15.90;13.25;;;20.10;99.90;;;;;;5093975;28;20044;-70
2022/07/25 02:30:49;;;;;;;15.88;12.85;;;20.10;99.90;;;;;;5093567;28;20513;-70
2022/07/25 02:33:15;;;;;;;14.75;12.45;;;20.10;99.90;;;;;;5095464;28;20058;-70
2022/07/25 02:35:40;;;;;;;16.00;13.20;;;20.10;99.90;;;;;;5086857;28;20036;-70
2022/07/25 02:38:06;;;;;;;14.50;12.63;;;20.10;99.90;;;;;;5095202;28;20040;-70
2022/07/25 02:40:32;;;;;;;15.23;12.75;;;20.10;99.90;;;;;;5093628;28;20044;-70
2022/07/25 02:42:58;;;;;;;17.88;14.27;;;20.10;99.90;;;;;;5093996;28;20052;-70
2022/07/25 02:45:23;;;;;;;15.10;13.43;;;20.10;99.90;;;;;;5094665;28;20040;-70
2022/07/25 02:47:49;;;;;;;15.70;12.43;;;20.10;99.90;;;;;;5095029;28;20520;-70
2022/07/25 02:50:15;;;;;;;15.38;13.02;;;20.10;99.90;;;;;;5093387;28;20028;-70
2022/07/25 02:52:41;;;;;;;15.07;13.50;;;20.10;99.90;;;;;;5095028;28;20481;-70
2022/07/25 02:55:08;;;;;;;16.20;12.55;;;20.00;99.90;;;;;;5094873;28;20403;-70
2022/07/25 02:57:33;;;;;;;14.20;12.30;;;20.10;99.90;;;;;;5093753;28;20036;-70
2022/07/25 02:59:59;;;;;;;16.88;13.50;;;20.10;99.90;;;;;;5093008;28;20402;-70
2022/07/25 03:02:24;;;;;;;17.05;13.50;;;20.10;99.90;;;;;;5094875;28;20122;-70
2022/07/25 03:04:50;;;;;;;18.13;12.65;;;20.10;99.90;;;;;;5094674;28;20528;-70
2022/07/25 03:07:15;;;;;;;18.35;13.73;;;20.00;99.90;;;;;;5094740;28;20585;-70
2022/07/25 03:09:41;;;;;;;16.52;13.35;;;20.00;99.90;;;;;;5092907;28;20444;-70
2022/07/25 03:12:06;;;;;;;15.32;11.80;;;19.90;99.90;;;;;;5093217;28;20043;-70
2022/07/25 03:14:33;;;;;;;13.93;11.38;;;19.90;99.90;;;;;;5093249;28;20039;-70
2022/07/25 03:16:59;;;;;;;13.05;11.32;;;19.90;99.90;;;;;;5093044;28;20032;-69
2022/07/25 03:19:24;;;;;;;13.70;11.48;;;20.00;99.90;;;;;;5092805;28;20032;-70
2022/07/25 03:21:50;;;;;;;16.60;12.18;;;20.00;99.90;;;;;;5093305;28;20131;-70
2022/07/25 03:24:17;;;;;;;14.07;11.23;;;20.10;99.90;;;;;;5093054;28;20523;-70
2022/07/25 03:26:42;;;;;;;13.88;11.00;;;20.10;99.90;;;;;;5093236;28;20482;-70
2022/07/25 03:29:08;;;;;;;12.25;10.68;;;20.10;99.90;;;;;;5091643;28;20127;-70
2022/07/25 03:31:33;;;;;;;15.27;12.23;;;20.10;99.90;;;;;;5092671;28;20417;-70
2022/07/25 03:33:59;;;;;;;13.95;10.75;;;20.10;99.90;;;;;;5092681;28;20073;-70
2022/07/25 03:36:24;;;;;;;17.58;11.85;;;20.20;99.90;;;;;;5092656;28;20125;-70
2022/07/25 03:38:50;;;;;;;14.48;11.32;;;20.20;99.90;;;;;;5094033;28;20178;-70
2022/07/25 03:41:16;;;;;;;12.68;11.32;;;20.20;99.90;;;;;;5092493;28;20051;-70
2022/07/25 03:43:41;;;;;;;17.63;11.35;;;20.20;99.90;;;;;;5093779;28;20042;-70
2022/07/25 03:46:07;;;;;;;13.13;10.27;;;20.20;99.90;;;;;;5092319;28;20124;-70
2022/07/25 03:48:32;;;;;;;11.95;10.45;;;20.20;99.90;;;;;;5093974;28;20123;-70
2022/07/25 03:50:58;;;;;;;14.27;12.57;;;20.20;99.90;;;;;;5092229;28;20044;-70
2022/07/25 03:53:23;;;;;;;14.93;13.30;;;20.20;99.90;;;;;;5092471;28;20036;-70
2022/07/25 03:55:49;;;;;;;14.30;12.77;;;20.20;99.90;;;;;;5092379;28;20040;-70
2022/07/25 03:58:15;;;;;;;19.52;13.75;;;20.20;99.90;;;;;;5093552;28;20074;-70
2022/07/25 04:00:40;;;;;;;15.68;12.27;;;20.20;99.90;;;;;;5091872;28;20036;-70
2022/07/25 04:03:06;;;;;;;16.13;12.57;;;20.20;99.90;;;;;;5093688;28;20423;-70
2022/07/25 04:05:31;;;;;;;15.68;12.57;;;20.20;99.90;;;;;;5093437;28;20032;-72
2022/07/25 04:07:57;;;;;;;17.48;12.13;;;20.10;99.90;;;;;;5092357;28;20562;-72
2022/07/25 04:10:23;;;;;;;13.73;11.88;;;20.20;99.90;;;;;;5091818;28;20504;-72
2022/07/25 04:12:48;;;;;;;15.52;12.95;;;20.10;99.90;;;;;;5092246;28;20089;-72
2022/07/25 04:15:15;;;;;;;15.38;13.13;;;20.10;99.90;;;;;;5093119;28;20032;-72
2022/07/25 04:17:40;;;;;;;17.60;12.32;;;20.20;99.90;;;;;;5092044;28;20043;-70
2022/07/25 04:20:07;;;;;;;16.23;13.02;;;20.20;99.90;;;;;;5091838;28;20048;-72
2022/07/25 04:22:32;;;;;;;21.23;14.02;;;20.10;99.90;;;;;;5092170;28;20485;-70
2022/07/25 04:24:58;;;;;;;15.35;13.75;;;20.10;99.90;;;;;;5093179;28;20047;-70
2022/07/25 04:27:24;;;;;;;18.10;14.20;;;20.10;99.90;;;;;;5075062;28;20039;-70
2022/07/25 04:29:49;;;;;;;15.68;12.60;;;20.10;99.90;;;;;;5091305;28;20040;-70
2022/07/25 04:32:15;;;;;;;15.68;12.95;;;20.10;99.90;;;;;;5093075;28;20040;-70
2022/07/25 04:34:42;;;;;;;16.42;14.73;;;20.10;99.90;;;;;;5091629;28;20075;-71
2022/07/25 04:37:10;;;;;;;19.55;14.32;;;20.20;99.90;;;;;;5075032;28;20062;-71
2022/07/25 04:39:36;;;;;;;16.80;15.10;;;20.20;99.90;;;;;;5091146;28;20040;-71
2022/07/25 04:42:02;;;;;;;18.02;14.52;;;20.20;99.90;;;;;;5074526;28;20123;-71
2022/07/25 04:44:27;;;;;;;17.23;13.70;;;20.10;99.90;;;;;;5091240;28;20401;-71
2022/07/25 04:46:53;;;;;;;20.73;15.43;;;20.20;99.90;;;;;;5074481;28;20094;-70
2022/07/25 04:49:18;;;;;;;17.05;14.88;;;20.30;99.90;;;;;;5086988;28;20040;-70
2022/07/25 04:51:44;;;;;;;16.95;13.52;;;20.30;99.90;;;;;;5077518;28;20040;-70
2022/07/25 04:54:09;;;;;;;16.42;14.52;;;20.50;99.90;;;;;;5072236;28;20043;-71
2022/07/25 04:56:35;;;;;;;16.80;13.95;;;20.50;99.90;;;;;;5054503;28;20162;-71
2022/07/25 04:59:01;;;;;;;17.50;13.50;;;20.60;99.90;;;;;;5072298;28;20044;-71
2022/07/25 05:01:26;;;;;;;15.88;13.70;;;20.70;99.90;;;;;;5054029;28;20116;-70
2022/07/25 05:03:52;;;;;;;19.27;14.93;;;20.70;99.90;;;;;;5072242;28;20036;-71
2022/07/25 05:06:18;;;;;;;14.73;13.23;;;20.70;99.90;;;;;;5072024;28;20037;-71
2022/07/25 05:08:43;;;;;;;18.90;13.05;;;20.70;99.90;;;;;;5072009;28;20047;-71
2022/07/25 05:11:09;;;;;;;16.67;14.25;;;20.80;99.90;;;;;;5053538;28;20040;-70
2022/07/25 05:13:35;;;;;;;15.07;13.48;;;20.80;99.90;;;;;;5072141;28;20039;-70
2022/07/25 05:16:01;;;;;;;20.80;15.43;;;21.00;99.90;;;;;;5071990;28;20037;-70
2022/07/25 05:18:27;;;;;;;17.73;13.65;;;21.00;99.90;;;;;;5072084;28;20044;-71
2022/07/25 05:20:53;;;;;;;14.50;12.82;;;21.20;99.90;;;;;;5071507;28;20108;-71
2022/07/25 05:23:18;;;;;;;14.52;13.02;;;21.30;99.90;;;;;;5071863;28;20051;-71
2022/07/25 05:25:44;;;;;;;16.02;13.70;;;21.40;99.90;;;;;;5053916;28;20047;-71
2022/07/25 05:28:09;;;;;;;13.73;12.32;;;21.50;99.90;;;;;;5071535;28;20044;-71
2022/07/25 05:30:35;;;;;;;15.38;13.10;;;21.60;99.90;;;;;;5053564;28;20398;-73
2022/07/25 05:33:00;;;;;;;16.58;13.70;;;21.70;99.90;;;;;;5036952;28;20032;-71
2022/07/25 05:35:26;;;;;;;17.38;12.68;;;21.80;99.90;;;;;;5071633;28;20040;-71
2022/07/25 05:37:52;;;;;;;15.57;13.15;;;21.80;99.90;;;;;;5071748;28;20031;-70
2022/07/25 05:40:18;;;;;;;15.82;12.68;;;21.90;99.90;;;;;;5071367;28;20111;-71
2022/07/25 05:42:44;;;;;;;17.00;12.48;;;21.90;99.90;;;;;;5071465;28;20048;-71
2022/07/25 05:45:09;;;;;;;14.15;12.70;;;21.90;99.90;;;;;;5053523;28;20040;-68
2022/07/25 05:47:35;;;;;;;14.40;12.85;;;22.00;99.90;;;;;;5053533;28;20036;-69
2022/07/25 05:50:01;;;;;;;13.75;12.27;;;21.90;99.90;;;;;;5053264;28;20048;-69
2022/07/25 05:52:26;;;;;;;15.98;13.20;;;21.90;99.90;;;;;;5071090;28;20071;-68
2022/07/25 05:54:52;;;;;;;16.17;12.90;;;22.00;99.90;;;;;;5036686;28;20436;-69
2022/07/25 05:57:18;;;;;;;16.00;13.45;;;21.90;99.90;;;;;;5071505;28;20559;-70
2022/07/25 05:59:43;;;;;;;13.85;11.27;;;22.10;99.90;;;;;;5053249;28;20037;-69
2022/07/25 06:02:09;;;;;;;14.35;11.82;;;22.00;99.90;;;;;;5053491;28;20040;-69
2022/07/25 06:04:34;;;;;;;13.43;11.63;;;22.20;99.90;;;;;;5053687;28;20036;-69
2022/07/25 06:07:00;;;;;;;16.20;10.82;;;22.30;99.90;;;;;;5071421;28;20041;-69
2022/07/25 06:09:26;;;;;;;12.57;11.27;;;22.40;99.90;;;;;;5052976;28;20127;-70
2022/07/25 06:11:51;;;;;;;16.15;12.02;;;22.60;99.90;;;;;;5053260;28;20052;-69
2022/07/25 06:14:17;;;;;;;12.68;11.02;;;22.60;99.90;;;;;;5071462;28;20037;-69
2022/07/25 06:16:43;;;;;;;12.48;10.48;;;22.70;99.90;;;;;;5053403;28;20385;-70
2022/07/25 06:19:08;;;;;;;12.95;10.90;;;22.80;99.90;;;;;;5053264;28;20136;-70
2022/07/25 06:21:34;;;;;;;12.15;10.35;;;23.00;99.90;;;;;;5053082;28;20059;-70
2022/07/25 06:24:00;;;;;;;13.20;11.02;;;23.10;99.90;;;;;;5053376;28;20102;-70
2022/07/25 06:26:26;;;;;;;16.77;10.20;;;23.30;99.90;;;;;;5053130;28;20048;-70
2022/07/25 06:28:54;;;;;;;14.65;10.25;;;23.40;99.90;;;;;;5053329;28;20044;-70
2022/07/25 06:31:19;;;;;;;13.02;9.38;;;23.40;99.90;;;;;;5053216;28;20048;-70
2022/07/25 06:33:45;;;;;;;13.93;9.68;;;23.40;99.90;;;;;;5071190;28;20483;-70
2022/07/25 06:36:10;;;;;;;11.25;10.05;;;23.50;99.90;;;;;;5071103;28;20033;-71
2022/07/25 06:38:36;;;;;;;11.88;10.07;;;23.40;99.90;;;;;;5070925;28;20486;-70
2022/07/25 06:41:02;;;;;;;13.68;10.10;;;23.40;99.90;;;;;;5052654;28;20048;-70
2022/07/25 06:43:28;;;;;;;15.80;10.75;;;23.30;99.90;;;;;;5070932;28;20409;-70
2022/07/25 06:45:53;;;;;;;11.60;10.40;;;23.30;99.90;;;;;;5053035;28;20052;-70
2022/07/25 06:48:19;;;;;;;11.35;10.23;;;23.30;99.90;;;;;;5052867;28;20051;-71
2022/07/25 06:50:45;;;;;;;10.65;9.25;;;23.50;99.90;;;;;;5070655;28;20040;-71
2022/07/25 06:53:11;;;;;;;12.32;10.38;;;23.80;99.90;;;;;;5070837;28;20033;-71
2022/07/25 06:55:36;;;;;;;11.23;10.05;;;24.10;99.90;;;;;;5070992;28;20402;-70
2022/07/25 06:58:02;;;;;;;10.38;9.10;;;24.50;99.90;;;;;;5071045;28;20044;-70
2022/07/25 07:00:28;;;;;;;12.10;10.07;;;24.80;99.90;;;;;;5052859;28;20518;-69
2022/07/25 07:02:57;;;;;;;14.88;10.90;;;25.40;99.90;;;;;;5053232;28;20106;-71
2022/07/25 07:05:23;;;;;;;14.70;10.15;;;25.60;99.90;;;;;;5039291;28;20043;-70
2022/07/25 07:07:49;;;;;;;14.82;10.13;;;25.60;99.90;;;;;;5092586;28;20044;-71
2022/07/25 07:10:16;;;;;;;14.93;10.10;;;25.50;98.30;;;;;;5059295;28;20396;-71
2022/07/25 07:12:43;;;;;;;12.93;10.13;;;25.50;98.30;;;;;;5076283;28;20123;-70
2022/07/25 07:15:09;;;;;;;11.85;10.52;;;25.80;97.50;;;;;;5076385;28;20497;-70
2022/07/25 07:17:35;;;;;;;12.73;10.82;;;25.90;97.40;;;;;;5076328;28;20082;-70
2022/07/25 07:20:01;;;;;;;13.00;10.70;;;26.00;96.90;;;;;;5059270;28;20040;-70
2022/07/25 07:22:26;;;;;;;15.48;11.05;;;25.80;96.60;;;;;;5059749;28;20048;-70
2022/07/25 07:24:52;;;;;;;14.77;10.70;;;25.40;96.50;;;;;;5076332;28;20040;-70
2022/07/25 07:27:18;;;;;;;13.70;10.13;;;25.10;96.90;;;;;;5094180;28;20119;-70
2022/07/25 07:29:43;;;;;;;14.05;11.20;;;24.90;97.60;;;;;;5093849;28;20072;-70
2022/07/25 07:32:09;;;;;;;12.07;10.77;;;24.70;98.60;;;;;;5076126;28;20382;-70
2022/07/25 07:34:34;;;;;;;14.52;10.25;;;24.70;99.20;;;;;;5058789;28;20520;-70
2022/07/25 07:37:01;;;;;;;13.48;10.82;;;24.70;99.80;;;;;;5064454;28;20079;-71
2022/07/25 07:39:26;;;;;;;11.18;10.02;;;24.60;99.90;;;;;;5083881;28;20043;-70
2022/07/25 07:41:52;;;;;;;13.18;10.50;;;24.50;99.90;;;;;;5065923;28;20042;-70
2022/07/25 07:44:18;;;;;;;13.32;11.88;;;24.40;99.90;;;;;;5087900;28;20481;-70
2022/07/25 07:46:43;;;;;;;15.07;12.10;;;24.40;99.90;;;;;;5075763;28;20114;-71
2022/07/25 07:49:09;;;;;;;14.70;11.02;;;24.30;99.90;;;;;;5087438;28;20037;-70
2022/07/25 07:51:34;;;;;;;11.85;10.07;;;24.20;99.90;;;;;;5063739;28;20032;-70
2022/07/25 07:56:44;;;;;;;12.35;10.45;;;24.50;99.90;;;;;;5072002;28;20048;-70
2022/07/25 07:59:10;;;;;;;13.65;10.82;;;24.60;99.90;;;;;;5083707;28;20035;-70
2022/07/25 08:01:36;;;;;;;11.57;10.35;;;24.80;99.90;;;;;;5065090;28;20040;-71
2022/07/25 08:04:02;;;;;;;11.00;9.32;;;24.90;99.90;;;;;;5058754;28;20048;-70
2022/07/25 08:06:27;;;;;;;10.15;9.15;;;25.00;99.90;;;;;;5073355;28;20042;-70
2022/07/25 08:08:53;;;;;;;11.90;9.50;;;25.00;99.90;;;;;;5073020;28;20044;-70
2022/07/25 08:11:19;;;;;;;11.18;8.23;;;24.90;99.30;;;;;;5054864;28;20044;-71
2022/07/25 08:13:45;;;;;;;8.98;8.05;;;24.80;99.40;;;;;;5055477;28;20076;-70
2022/07/25 08:16:12;;;;;;;9.60;8.27;;;24.80;98.90;;;;;;5072644;28;20040;-71
2022/07/25 08:18:38;;;;;;;10.85;8.93;;;24.70;99.10;;;;;;5054959;28;20119;-71
2022/07/25 08:21:05;;;;;;;10.23;8.25;;;24.70;98.90;;;;;;5054722;28;20037;-71
2022/07/25 08:23:33;;;;;;;13.45;8.35;;;24.60;99.70;;;;;;5054925;28;20119;-71
2022/07/25 08:25:59;;;;;;;13.25;7.82;;;24.50;99.90;;;;;;5054818;28;20094;-71
2022/07/25 08:28:25;;;;;;;8.57;7.50;;;24.40;99.90;;;;;;5021919;28;20036;-71
2022/07/25 08:30:51;;;;;;;10.93;8.20;;;24.30;99.90;;;;;;5054487;28;20047;-71
2022/07/25 08:33:17;;;;;;;10.75;8.07;;;24.20;99.90;;;;;;5054675;28;20051;-70
2022/07/25 08:35:47;;;;;;;9.43;8.18;;;24.20;99.90;;;;;;5037962;28;20033;-70
2022/07/25 08:38:13;;;;;;;10.77;8.35;;;24.20;99.90;;;;;;5072448;28;20511;-71
2022/07/25 08:40:38;;;;;;;9.70;7.60;;;24.10;99.90;;;;;;5072310;28;20041;-70
2022/07/25 08:43:04;;;;;;;8.50;6.65;;;24.30;99.90;;;;;;5037988;28;20044;-69
2022/07/25 08:45:32;;;;;;;9.05;6.82;;;24.40;99.90;;;;;;5054434;28;20048;-69
2022/07/25 08:47:57;;;;;;;8.98;6.40;;;24.60;99.90;;;;;;5072289;28;20425;-71
2022/07/25 08:50:26;;;;;;;11.32;7.40;;;24.60;99.60;;;;;;5072133;28;20047;-70
2022/07/25 08:52:52;;;;;;;7.40;6.32;;;24.40;99.20;;;;;;5054252;28;20032;-70
2022/07/25 08:55:20;;;;;;;9.07;6.50;;;24.40;99.80;;;;;;5072298;28;20503;-69
2022/07/25 08:57:49;;;;;;;9.43;6.22;;;24.30;99.90;;;;;;5054620;28;20036;-70
2022/07/25 09:00:19;;;;;;;9.30;6.88;;;24.10;99.90;;;;;;5054207;28;20040;-69
2022/07/25 09:02:59;;;;;;;8.15;6.65;;;24.10;99.90;;;;;;5072203;28;20041;-70
2022/07/25 09:05:26;;;;;;;7.25;6.28;;;24.00;99.90;;;;;;5037840;28;20075;-70
2022/07/25 09:07:54;;;;;;;8.75;6.43;;;24.00;99.90;;;;;;5054260;28;20040;-70
2022/07/25 09:10:27;;;;;;;8.48;6.20;;;24.10;99.90;;;;;;5037139;28;20075;-71
2022/07/25 09:12:57;;;;;;;9.75;6.30;;;24.00;99.90;;;;;;5054445;28;20028;-70
2022/07/25 09:15:28;;;;;;;6.82;5.70;;;23.90;99.90;;;;;;5062803;28;20035;-69
2022/07/25 09:17:55;;;;;;;7.88;5.30;;;23.90;99.90;;;;;;5082280;28;20028;-70
2022/07/25 09:20:22;;;;;;;6.68;5.57;;;23.80;99.90;;;;;;5090759;28;20040;-70
2022/07/25 09:22:47;;;;;;;7.57;5.35;;;23.70;99.90;;;;;;5090755;28;20114;-71
2022/07/25 09:25:29;;;;;;;9.38;7.05;;;23.80;99.90;;;;;;5091915;28;20119;-70
2022/07/25 09:28:16;;;;;;;7.53;6.43;;;23.70;99.90;;;;;;5091584;28;20047;-70
2022/07/25 09:30:56;;;;;;;8.65;6.75;;;23.90;99.90;;;;;;5073558;28;20047;-70
2022/07/25 09:33:23;;;;;;;7.28;6.03;;;24.10;99.90;;;;;;5090976;28;20422;-71
2022/07/25 09:35:51;;;;;;;9.00;6.00;;;24.20;99.90;;;;;;5073909;28;20418;-71
2022/07/25 09:38:18;;;;;;;7.38;4.57;;;24.50;99.90;;;;;;5085269;28;20039;-71
2022/07/25 09:41:02;;;;;;;4.75;3.33;;;24.50;99.90;;;;;;5091511;28;20079;-70
2022/07/25 09:43:42;;;;;;;3.28;2.88;;;24.40;99.50;;;;;;5090497;28;20083;-70
2022/07/25 09:46:09;;;;;;;3.92;2.70;;;24.30;97.20;;;;;;5090353;28;20036;-70
2022/07/25 09:48:36;;;;;;;3.33;2.42;;;24.40;98.20;;;;;;5091918;28;20036;-70
2022/07/25 09:51:02;;;;;;;5.43;2.65;;;24.50;98.20;;;;;;5091577;28;20124;-71
2022/07/25 09:53:28;;;;;;;3.75;2.20;;;24.60;97.60;;;;;;5091799;28;20464;-70
2022/07/25 09:55:55;;;;;;;3.70;2.08;;;24.70;97.70;;;;;;5090292;28;20044;-71
2022/07/25 09:58:23;;;;;;;3.90;2.08;;;25.00;97.50;;;;;;5090224;28;20627;-71
2022/07/25 10:00:49;;;;;;;3.78;2.30;;;25.40;97.10;;;;;;5090286;28;20058;-70
2022/07/25 10:03:44;;;;;;;6.32;2.53;;;25.60;96.20;;;;;;5091865;28;20050;-71
2022/07/25 10:06:10;;;;;;;3.20;2.45;;;25.40;95.10;;;;;;5056135;28;20040;-68
2022/07/25 10:08:38;;;;;;;5.90;2.45;;;25.30;94.50;;;;;;5073407;28;20062;-68
2022/07/25 10:11:05;;;;;;;3.80;2.20;;;25.30;94.80;;;;;;5073191;28;20036;-68
2022/07/25 10:13:37;;;;;;;5.03;2.25;;;25.40;96.20;;;;;;5073541;28;20047;-69
2022/07/25 10:16:14;;;;;;;4.03;2.17;;;25.20;95.60;;;;;;5056758;28;20089;-68
2022/07/25 10:18:47;;;;;;;4.03;2.30;;;25.30;95.90;;;;;;5073689;28;20135;-69
2022/07/25 10:21:13;;;;;;;2.97;1.73;;;25.60;95.30;;;;;;5091270;28;20074;-68
2022/07/25 10:23:39;;;;;;;4.90;2.30;;;25.60;94.00;;;;;;5063066;28;20226;-69
2022/07/25 10:26:12;;;;;;;2.25;2.03;;;25.50;93.40;;;;;;5070904;28;20053;-68
2022/07/25 10:28:48;;;;;;;3.30;2.55;;;25.50;93.70;;;;;;5071288;28;20041;-70
2022/07/25 10:31:37;;;;;;;4.30;2.25;;;25.40;93.20;;;;;;5052757;28;20121;-69
2022/07/25 10:34:06;;;;;;;2.03;1.77;;;25.40;93.50;;;;;;5053012;28;20039;-69
2022/07/25 10:36:48;;;;;;;4.22;2.13;;;25.40;94.30;;;;;;5036692;28;20059;-69
2022/07/25 10:39:16;;;;;;;3.13;2.00;;;25.20;92.70;;;;;;5073899;28;20494;-69
2022/07/25 10:41:51;;;;;;;2.83;1.70;;;25.00;93.50;;;;;;5056619;28;20037;-70
2022/07/25 10:44:17;;;;;;;4.40;1.67;;;24.80;93.80;;;;;;5056980;28;20048;-69
2022/07/25 10:46:43;;;;;;;3.70;2.03;;;24.70;94.00;;;;;;5074698;28;20044;-68
2022/07/25 10:49:18;;;;;;;2.85;1.55;;;24.70;94.70;;;;;;5056623;28;20396;-68
2022/07/25 10:51:55;;;;;;;3.00;1.63;;;24.70;95.40;;;;;;5056642;28;20036;-71
2022/07/25 10:54:21;;;;;;;1.98;1.25;;;24.60;95.10;;;;;;5074483;28;20040;-70
2022/07/25 10:56:52;;;;;;;2.22;1.20;;;24.50;96.00;;;;;;5056954;28;20397;-71
2022/07/25 10:59:29;;;;;;;4.53;1.42;;;24.40;96.10;;;;;;5074305;28;20406;-71
2022/07/25 11:01:55;;;;;;;2.83;1.70;;;24.30;96.80;;;;;;5074323;28;20036;-69
2022/07/25 11:04:20;;;;;;;4.55;1.55;;;24.10;96.90;;;;;;5056681;28;20533;-69
2022/07/25 11:06:46;;;;;;;3.88;1.40;;;24.00;97.50;;;;;;5073660;28;20068;-69
2022/07/25 11:09:19;;;;;;;4.80;1.75;;;23.70;98.40;;;;;;5072701;28;20049;-67
2022/07/25 11:11:47;;;;;;;5.45;2.05;;;23.50;99.90;;;;;;5074130;28;20033;-68
2022/07/25 11:14:15;;;;;;;5.95;2.25;;;23.20;99.90;;;;;;5074449;28;20032;-69
2022/07/25 11:16:45;;;;;;;6.13;2.00;;;23.00;99.90;;;;;;5074093;28;20470;-69
2022/07/25 11:19:28;;;;;;;4.25;2.22;;;22.90;99.90;;;;;;5038945;28;20093;-67
2022/07/25 11:22:05;;;;;;;2.35;1.80;;;22.90;99.90;;;;;;5073791;28;20123;-67
2022/07/25 11:24:42;;;;;;;3.25;2.30;;;23.10;99.90;;;;;;5055533;28;20102;-68
2022/07/25 11:27:31;;;;;;;4.88;2.58;;;23.30;99.90;;;;;;5056220;28;20060;-70
2022/07/25 11:30:13;;;;;;;3.17;2.33;;;23.40;99.90;;;;;;5054725;28;20045;-67
2022/07/25 11:32:53;;;;;;;5.50;2.10;;;23.70;99.90;;;;;;5073731;28;20068;-68
2022/07/25 11:35:30;;;;;;;5.15;2.30;;;23.70;99.90;;;;;;5040236;28;20110;-69
2022/07/25 11:38:01;;;;;;;5.35;2.28;;;23.70;99.90;;;;;;5055645;28;20063;-69
2022/07/25 11:40:26;;;;;;;4.45;2.65;;;23.70;99.90;;;;;;5073361;28;20040;-69
2022/07/25 11:42:55;;;;;;;4.75;2.15;;;23.60;99.90;;;;;;5073521;28;20086;-68
2022/07/25 11:45:29;;;;;;;5.47;2.25;;;23.50;99.90;;;;;;5095230;22;20040;-72
2022/07/25 11:48:04;;;;;;;8.38;2.40;;;23.60;99.90;;;;;;5073411;28;20538;-72
2022/07/25 11:50:31;;;;;;;7.45;2.50;;;23.60;99.90;;;;;;5071804;28;20081;-72
2022/07/25 11:53:02;;;;;;;5.35;2.38;;;23.70;99.90;;;;;;5073286;28;20090;-72
2022/07/25 11:55:31;;;;;;;4.63;2.47;;;23.70;99.90;;;;;;5059271;28;20124;-72
2022/07/25 11:57:59;;;;;;;5.32;2.10;;;23.90;99.90;;;;;;5073288;28;20044;-72
2022/07/25 12:00:25;;;;;;;9.02;3.28;;;23.90;99.90;;;;;;5073162;28;20048;-72
2022/07/25 12:02:50;;;;;;;5.65;3.58;;;23.80;99.90;;;;;;5073117;28;20379;-72
2022/07/25 12:05:19;;;;;;;5.18;2.35;;;23.90;99.90;;;;;;5071974;28;20083;-72
2022/07/25 12:07:45;;;;;;;6.88;2.90;;;23.80;99.90;;;;;;5071745;28;20439;-73
2022/07/25 12:10:31;;;;;;;8.07;2.70;;;23.90;99.90;;;;;;5072618;28;20448;-72
2022/07/25 12:13:00;;;;;;;3.83;1.95;;;24.00;99.90;;;;;;5069553;28;20072;-72
2022/07/25 12:15:39;;;;;;;5.57;2.10;;;24.00;99.90;;;;;;5070772;28;20057;-73
2022/07/25 12:18:09;;;;;;;6.72;2.88;;;23.90;99.90;;;;;;5071496;28;20068;-72
2022/07/25 12:20:38;;;;;;;9.32;2.30;;;23.80;99.90;;;;;;5071445;28;20032;-72
2022/07/25 12:23:07;;;;;;;7.90;2.42;;;23.60;99.90;;;;;;5073113;28;20115;-72
2022/07/25 12:25:36;;;;;;;4.65;2.55;;;23.60;99.90;;;;;;5071924;28;20048;-72
2022/07/25 12:28:02;;;;;;;7.15;3.00;;;23.60;99.90;;;;;;5071307;28;20459;-72
2022/07/25 12:30:29;;;;;;;9.50;2.70;;;23.70;99.90;;;;;;5071976;28;20085;-71
2022/07/25 12:32:55;;;;;;;6.15;2.65;;;23.70;99.90;;;;;;5072327;28;20032;-71
2022/07/25 12:35:21;;;;;;;5.78;1.98;;;23.90;99.90;;;;;;5070983;28;20032;-74
2022/07/25 12:37:47;;;;;;;3.08;1.80;;;24.10;99.90;;;;;;5071120;28;20043;-75
2022/07/25 12:40:14;;;;;;;8.23;2.33;;;24.30;99.90;;;;;;5072263;28;20043;-77